Terminal Aerodrome Forecast
Issued by NWS Sioux Falls, SD

Home | Current Version | Previous Version | Graphics & Text | Print | Product List | Glossary On
Versions: 1 2 3 4 5 6 7 8 9 10 11 12
000
FTUS43 KFSD 011734
TAFFSD
TAF
KFSD 011734Z 0118/0218 10005KT P6SM SCT120 OVC200
     FM012100 13009KT P6SM SCT100 BKN200
      TEMPO 0121/0123 6SM SHRA BKN090
     FM012300 14010KT P6SM SCT100 BKN200
      TEMPO 0123/0202 4SM TSRA BR OVC060CB
     FM020900 15007KT 5SM BR FEW003 SCT080
     FM021400 17011KT P6SM SKC=

USA.gov is the U.S. government's official web portal to all federal, state and local government web resources and services.